Time;durP1;ratioP1;P1;durP2;ratioP2;P2;SDS_P1;SDS_P2;PMS_P1;PMS_P2;Temp;Humidity;BMP_temperature;BMP_pressure;BME280_temperature;BME280_humidity;BME280_pressure;Samples;Min_cycle;Max_cycle;Signal;HPM_P1;HPM_P2
2022/08/12 00:44:18;;;;;;;10.65;5.32;;;;;;;19.81;65.42;100828.28;8301680;28;20030;-52
2022/08/12 00:48:19;;;;;;;12.23;5.82;;;;;;;19.48;66.49;100834.19;8283006;28;20121;-50
2022/08/12 00:52:20;;;;;;;9.35;4.97;;;;;;;19.11;67.83;100826.03;8270792;28;20039;-53
2022/08/12 00:56:25;;;;;;;8.77;5.55;;;;;;;19.06;68.46;100822.16;8286052;28;20073;-49
2022/08/12 01:00:26;;;;;;;8.85;4.95;;;;;;;19.05;67.74;100834.16;8294131;28;20037;-52
2022/08/12 01:13:13;;;;;;;8.18;4.95;;;;;;;19.13;68.46;100826.69;8293513;28;20129;-53
2022/08/12 01:17:13;;;;;;;6.82;4.53;;;;;;;19.25;67.41;100821.59;8289611;28;20042;-49
2022/08/12 01:25:43;;;;;;;18.05;5.40;;;;;;;19.38;66.77;100828.16;8401337;27;20390;-50
2022/08/12 01:29:46;;;;;;;7.57;4.47;;;;;;;19.12;68.74;100841.44;8364595;28;20069;-50
2022/08/12 01:34:02;;;;;;;7.53;4.93;;;;;;;18.94;69.36;100829.97;8366017;28;20039;-49
2022/08/12 01:38:07;;;;;;;7.95;5.35;;;;;;;18.56;71.32;100835.66;8347989;28;20057;-52
2022/08/12 01:42:09;;;;;;;7.22;4.93;;;;;;;18.10;73.16;100837.50;8355883;28;20079;-49
2022/08/12 01:46:28;;;;;;;7.20;5.60;;;;;;;17.90;74.08;100833.53;8344325;28;20057;-48
2022/08/12 01:51:08;;;;;;;8.52;6.00;;;;;;;17.92;73.92;100825.13;8333313;28;20464;-49
2022/08/12 01:55:12;;;;;;;10.52;6.53;;;;;;;17.49;75.61;100832.03;8361835;27;20043;-49
2022/08/12 01:59:57;;;;;;;9.95;6.80;;;;;;;17.38;77.33;100826.91;8380195;27;20040;-49
2022/08/12 02:13:12;;;;;;;11.75;6.53;;;;;;;17.29;77.20;100828.81;8320952;28;20395;-49
2022/08/12 02:17:32;;;;;;;11.18;6.35;;;;;;;17.27;77.60;100835.50;8316788;28;20425;-52
2022/08/12 02:21:45;;;;;;;6.55;5.88;;;;;;;17.17;78.47;100829.41;8318962;28;20136;-52
2022/08/12 02:25:46;;;;;;;12.57;6.60;;;;;;;17.30;78.42;100829.69;8318982;28;20034;-50
2022/08/12 02:29:48;;;;;;;9.23;5.93;;;;;;;17.36;77.54;100839.91;8301466;28;20037;-49
2022/08/12 02:33:48;;;;;;;7.80;5.88;;;;;;;17.41;77.47;100837.50;8308914;28;20096;-48
2022/08/12 02:37:52;;;;;;;10.05;6.70;;;;;;;17.15;78.54;100835.03;8320371;28;20037;-48
2022/08/12 02:41:56;;;;;;;10.40;6.10;;;;;;;16.79;80.27;100841.94;8320990;28;20567;-49
2022/08/12 02:50:19;;;;;;;9.27;5.75;;;;;;;16.99;78.73;100839.69;8415760;27;20832;-52
2022/08/12 02:54:20;;;;;;;;;;;;;;;16.84;79.62;100844.16;8404177;27;20040;-50
2022/08/12 02:58:22;;;;;;;11.40;6.80;;;;;;;16.71;80.35;100843.81;8403321;27;19913;-52
2022/08/12 03:02:28;;;;;;;8.10;5.97;;;;;;;17.10;78.13;100839.28;8403640;27;20046;-52
2022/08/12 03:06:37;;;;;;;7.15;5.65;;;;;;;16.98;78.90;100843.41;8403422;27;20032;-52
2022/08/12 03:10:41;;;;;;;10.65;6.80;;;;;;;16.54;80.79;100832.06;8403872;27;20052;-50
2022/08/12 03:14:42;;;;;;;10.85;7.20;;;;;;;16.41;81.66;100830.81;8403064;27;20155;-49
2022/08/12 03:18:44;;;;;;;8.82;6.50;;;;;;;16.45;82.05;100826.75;8391661;27;20058;-50
2022/08/12 03:22:45;;;;;;;8.07;6.57;;;;;;;16.59;81.31;100831.53;8388604;27;20063;-50
2022/08/12 03:26:47;;;;;;;11.25;6.60;;;;;;;16.76;80.74;100831.34;8392323;27;20028;-52
2022/08/12 03:30:50;;;;;;;9.18;6.72;;;;;;;16.90;80.57;100833.34;8401007;27;20085;-49
2022/08/12 03:34:56;;;;;;;10.02;6.63;;;;;;;16.30;82.76;100828.44;8402924;27;20041;-49
2022/08/12 03:39:39;;;;;;;8.27;6.63;;;;;;;16.10;84.24;100835.25;8402364;27;20127;-51
2022/08/12 04:00:57;;;;;;;11.15;7.53;;;;;;;16.55;82.18;100843.81;8379059;27;20036;-52
2022/08/12 04:04:57;;;;;;;16.38;8.40;;;;;;;16.60;81.94;100830.50;8361914;28;20054;-49
2022/08/12 04:08:58;;;;;;;15.70;7.35;;;;;;;16.67;81.16;100843.31;8378397;28;20075;-48
2022/08/12 04:13:29;;;;;;;16.58;7.72;;;;;;;16.55;80.87;100854.72;8384679;28;20111;-51
2022/08/12 04:17:19;;;;;;;21.33;7.35;;;;;;;16.45;81.34;100854.06;8378691;28;20029;-49
2022/08/12 04:21:20;;;;;;;23.05;8.25;;;;;;;16.34;81.15;100851.59;8379066;28;20128;-49
2022/08/12 04:25:23;;;;;;;30.90;8.27;;;;;;;16.36;81.07;100838.66;8379434;28;20035;-52
2022/08/12 04:29:25;;;;;;;27.55;8.43;;;;;;;16.33;81.41;100847.19;8377962;28;20040;-50
2022/08/12 04:33:26;;;;;;;13.70;7.70;;;;;;;16.37;79.32;100845.81;8373388;28;20049;-50
2022/08/12 04:37:27;;;;;;;13.00;8.55;;;;;;;16.26;79.13;100844.31;8346363;28;20466;-50
2022/08/12 04:41:28;;;;;;;19.40;8.68;;;;;;;16.46;79.22;100844.81;8349888;28;20431;-50
2022/08/12 04:45:31;;;;;;;9.35;7.43;;;;;;;16.53;78.91;100843.16;8361967;28;20044;-48
2022/08/12 04:49:33;;;;;;;16.25;8.23;;;;;;;16.34;80.27;100846.16;8352716;28;20041;-50
2022/08/12 04:53:34;;;;;;;20.35;7.30;;;;;;;16.67;79.05;100846.03;8355962;28;20459;-49
2022/08/12 04:57:34;;;;;;;18.80;7.30;;;;;;;16.84;77.43;100849.59;8360947;28;20118;-48
2022/08/12 05:01:36;;;;;;;13.13;7.10;;;;;;;17.08;76.33;100846.84;8352351;28;20120;-52
2022/08/12 05:05:39;;;;;;;12.40;6.78;;;;;;;17.08;75.80;100852.31;8371553;28;20094;-50
2022/08/12 05:09:39;;;;;;;15.45;6.95;;;;;;;17.18;75.46;100848.34;8388346;28;20048;-49
2022/08/12 05:13:40;;;;;;;12.93;7.57;;;;;;;17.35;75.10;100850.00;8377797;28;20131;-48
2022/08/12 05:17:42;;;;;;;9.50;7.35;;;;;;;17.36;74.51;100850.84;8373995;28;20033;-51
2022/08/12 05:21:45;;;;;;;11.63;7.05;;;;;;;17.47;74.21;100847.75;8371825;28;20048;-50
2022/08/12 05:25:48;;;;;;;9.25;6.78;;;;;;;17.63;74.61;100847.72;8368756;28;20135;-49
2022/08/12 05:29:48;;;;;;;14.82;7.60;;;;;;;17.87;73.27;100849.47;8361964;28;20048;-48
2022/08/12 05:33:49;;;;;;;13.53;6.90;;;;;;;17.88;72.76;100841.06;8357122;28;20056;-51
2022/08/12 05:38:54;;;;;;;8.75;6.38;;;;;;;17.99;72.61;100848.84;8346034;28;20827;-49
2022/08/12 05:42:10;;;;;;;13.50;7.88;;;;;;;18.16;72.63;100850.47;8355399;28;20095;-50
2022/08/12 05:46:10;;;;;;;13.88;7.50;;;;;;;18.44;72.46;100854.41;8349438;28;20544;-52
2022/08/12 05:50:11;;;;;;;9.45;6.95;;;;;;;18.57;71.31;100851.91;8351348;28;20041;-49
2022/08/12 05:54:11;;;;;;;13.07;6.65;;;;;;;18.67;71.23;100855.22;8348050;28;20033;-48
2022/08/12 05:58:11;;;;;;;9.43;7.50;;;;;;;19.11;69.97;100853.44;8347576;28;20033;-52
2022/08/12 06:02:12;;;;;;;9.38;6.75;;;;;;;19.58;68.24;100857.75;8371737;28;20037;-48
2022/08/12 06:06:15;;;;;;;8.98;6.57;;;;;;;19.70;68.52;100853.47;8372204;28;20051;-48
2022/08/12 06:10:16;;;;;;;13.57;6.60;;;;;;;20.13;67.80;100855.31;8371370;28;20039;-49
2022/08/12 06:14:18;;;;;;;12.18;6.07;;;;;;;20.31;65.36;100847.50;8371832;28;20496;-51
2022/08/12 06:18:18;;;;;;;9.80;6.15;;;;;;;20.54;65.21;100856.38;8371797;28;20598;-49
2022/08/12 06:22:18;;;;;;;7.47;6.10;;;;;;;20.81;64.51;100855.56;8371995;28;20120;-49
2022/08/12 06:26:19;;;;;;;12.40;6.75;;;;;;;20.77;64.30;100857.03;8371386;28;20036;-49
2022/08/12 06:30:20;;;;;;;16.13;5.60;;;;;;;21.01;63.66;100856.59;8371575;28;20036;-51
2022/08/12 06:34:21;;;;;;;18.27;6.70;;;;;;;21.26;63.21;100849.63;8370141;28;20078;-49
2022/08/12 06:38:24;;;;;;;12.65;5.80;;;;;;;21.53;62.44;100862.47;8371173;28;20020;-52
2022/08/12 06:42:55;;;;;;;9.93;5.95;;;;;;;21.87;61.78;100859.72;8371401;28;20059;-50
2022/08/12 06:46:46;;;;;;;10.15;6.28;;;;;;;22.66;60.39;100860.81;8370480;28;20048;-50
2022/08/12 06:50:48;;;;;;;7.95;5.05;;;;;;;22.91;59.77;100864.66;8371538;28;20029;-49
2022/08/12 06:54:48;;;;;;;20.60;5.97;;;;;;;23.11;59.37;100859.97;8370974;28;20489;-49
2022/08/12 06:58:49;;;;;;;10.98;5.38;;;;;;;23.49;58.67;100861.00;8370826;28;20409;-49
2022/08/12 07:02:50;;;;;;;16.25;5.75;;;;;;;23.63;58.04;100859.06;8370014;28;20029;-51
2022/08/12 07:06:50;;;;;;;12.50;5.15;;;;;;;23.88;57.91;100854.50;8371062;28;20119;-49
2022/08/12 07:10:57;;;;;;;19.20;4.82;;;;;;;24.36;56.47;100853.88;8371234;28;20040;-49
2022/08/12 07:15:00;;;;;;;21.13;4.50;;;;;;;24.45;55.87;100859.97;8369876;28;20123;-49
2022/08/12 07:19:03;;;;;;;17.17;5.47;;;;;;;24.65;55.46;100860.75;8370652;28;20501;-53
2022/08/12 07:23:04;;;;;;;18.90;4.57;;;;;;;24.97;54.85;100854.09;8370202;28;20067;-51
2022/08/12 07:27:04;;;;;;;7.35;3.30;;;;;;;25.46;52.53;100859.59;8370259;28;20040;-53
2022/08/12 07:31:08;;;;;;;8.55;3.30;;;;;;;25.80;51.77;100859.00;8369279;28;20033;-49
2022/08/12 07:35:08;;;;;;;10.35;3.53;;;;;;;25.97;51.39;100857.31;8374100;28;20044;-49
2022/08/12 07:39:08;;;;;;;9.15;3.58;;;;;;;26.31;50.91;100851.13;8376324;28;20037;-50
2022/08/12 07:43:09;;;;;;;2.57;2.33;;;;;;;26.57;48.58;100853.53;8376685;28;20028;-49
2022/08/12 07:47:09;;;;;;;4.20;2.50;;;;;;;26.56;48.53;100857.38;8375587;28;20275;-50
2022/08/12 07:51:10;;;;;;;5.85;2.80;;;;;;;26.71;48.25;100860.59;8376156;28;20260;-50
2022/08/12 07:55:12;;;;;;;4.90;2.28;;;;;;;27.02;48.12;100855.81;8375978;28;20037;-49
2022/08/12 07:59:12;;;;;;;6.53;2.40;;;;;;;27.49;48.08;100869.53;8375802;28;20087;-49
2022/08/12 08:03:16;;;;;;;6.82;2.40;;;;;;;27.31;47.59;100871.56;8375858;28;20051;-50
2022/08/12 08:07:16;;;;;;;3.28;2.33;;;;;;;27.24;47.50;100881.91;8375525;28;20040;-49
2022/08/12 08:15:38;;;;;;;3.83;2.47;;;;;;;27.34;47.29;100876.63;8375137;28;20341;-49
2022/08/12 08:19:39;;;;;;;3.55;2.15;;;;;;;27.43;46.94;100869.63;8375206;28;20106;-50
2022/08/12 08:24:40;;;;;;;6.15;2.22;;;;;;;27.80;46.54;100865.47;8375748;28;20064;-49
2022/08/12 08:28:03;;;;;;;4.32;2.20;;;;;;;27.91;46.10;100873.00;8374648;28;20449;-49
2022/08/12 08:32:08;;;;;;;8.43;2.10;;;;;;;27.89;46.54;100870.47;8375080;28;20139;-52
2022/08/12 08:36:09;;;;;;;2.22;1.88;;;;;;;28.05;45.93;100875.25;8374442;28;20500;-51
2022/08/12 08:44:30;;;;;;;5.63;2.20;;;;;;;28.20;45.53;100871.94;8374262;28;20036;-50
2022/08/12 08:48:33;;;;;;;6.30;2.10;;;;;;;28.49;45.31;100873.69;8374384;28;20045;-53
2022/08/12 08:52:33;;;;;;;3.65;2.08;;;;;;;28.79;44.53;100871.47;8373989;28;20553;-53
2022/08/12 08:56:49;;;;;;;3.70;2.07;;;;;;;28.90;44.41;100867.75;8374096;28;20397;-50
2022/08/12 09:00:49;;;;;;;3.08;2.00;;;;;;;29.35;43.98;100874.13;8373746;28;20271;-51
2022/08/12 09:04:50;;;;;;;3.38;2.08;;;;;;;29.47;43.88;100874.88;8373777;28;20067;-50
2022/08/12 09:08:50;;;;;;;6.13;2.17;;;;;;;29.57;43.86;100868.59;8369855;28;20154;-50
2022/08/12 09:13:51;;;;;;;7.05;2.28;;;;;;;29.56;43.86;100867.78;8355769;28;20061;-51
2022/08/12 09:17:12;;;;;;;3.78;1.83;;;;;;;29.69;43.26;100866.59;8357866;28;20086;-52
2022/08/12 09:21:13;;;;;;;2.50;1.88;;;;;;;29.58;42.88;100854.41;8358445;28;20525;-52
2022/08/12 09:25:13;;;;;;;4.88;2.03;;;;;;;29.49;42.37;100866.28;8366049;28;20408;-50
2022/08/12 09:29:19;;;;;;;3.40;1.80;;;;;;;29.35;42.41;100863.00;8366004;28;20044;-49
2022/08/12 09:33:19;;;;;;;3.20;2.03;;;;;;;29.72;42.64;100869.72;8395037;28;20028;-50
2022/08/12 09:37:20;;;;;;;3.05;2.03;;;;;;;29.69;42.31;100861.00;8385736;28;20044;-50
2022/08/12 09:41:21;;;;;;;6.00;1.77;;;;;;;30.06;41.89;100854.56;8386983;28;20039;-50
2022/08/12 09:45:22;;;;;;;4.88;1.77;;;;;;;30.16;41.04;100851.88;8384003;28;20170;-54
2022/08/12 09:49:24;;;;;;;2.67;1.70;;;;;;;30.55;40.71;100832.28;8385892;28;20048;-54
2022/08/12 09:53:25;;;;;;;3.05;1.80;;;;;;;31.71;39.52;100834.94;8385549;28;20029;-54
2022/08/12 09:57:25;;;;;;;3.30;1.83;;;;;;;33.10;37.47;100842.09;8377795;28;20413;-53
2022/08/12 10:01:25;;;;;;;3.20;1.60;;;;;;;33.73;35.61;100837.81;8385084;28;20029;-53
2022/08/12 10:05:27;;;;;;;6.43;1.90;;;;;;;34.53;35.67;100845.09;8386742;28;20366;-52
2022/08/12 10:09:27;;;;;;;2.90;1.88;;;;;;;34.74;35.19;100825.00;8386226;28;20275;-54
2022/08/12 10:13:45;;;;;;;6.88;1.77;;;;;;;35.47;33.57;100817.38;8385840;28;20123;-51
2022/08/12 10:17:45;;;;;;;5.97;1.27;;;;;;;35.09;33.96;100805.03;8374706;28;20032;-54
2022/08/12 10:21:46;;;;;;;3.20;1.53;;;;;;;35.96;33.17;100815.13;8385799;28;20060;-50
2022/08/12 10:30:07;;;;;;;4.13;1.92;;;;;;;36.07;32.52;100796.94;8385405;28;20036;-51
2022/08/12 10:34:08;;;;;;;3.22;1.70;;;;;;;35.69;32.57;100793.19;8385525;28;20031;-51
2022/08/12 10:38:10;;;;;;;3.25;1.73;;;;;;;35.53;32.74;100793.66;8385486;28;20111;-54
2022/08/12 10:43:43;;;;;;;4.80;1.77;;;;;;;35.70;32.68;100796.81;8385358;28;20032;-50
2022/08/12 10:46:34;;;;;;;2.33;1.70;;;;;;;36.01;32.59;100770.00;8384166;28;20048;-54
2022/08/12 10:50:35;;;;;;;7.78;1.80;;;;;;;35.67;31.91;100775.75;8368219;28;20052;-51
2022/08/12 10:54:35;;;;;;;5.53;1.40;;;;;;;36.61;30.93;100768.28;8366181;28;20067;-52
2022/08/12 10:58:37;;;;;;;5.80;1.95;;;;;;;36.57;31.08;100759.63;8365478;28;20410;-54
2022/08/12 11:02:49;;;;;;;4.82;1.85;;;;;;;36.58;30.80;100755.66;8379089;28;20037;-51
2022/08/12 11:06:50;;;;;;;2.23;1.13;;;;;;;37.23;30.98;100757.38;8376365;28;20147;-51
2022/08/12 11:10:51;;;;;;;4.13;1.30;;;;;;;37.19;30.65;100736.56;8388954;28;20032;-54
2022/08/12 11:14:52;;;;;;;2.03;1.45;;;;;;;36.64;30.97;100747.94;8377383;28;20038;-53
2022/08/12 11:18:52;;;;;;;4.68;1.70;;;;;;;37.03;30.49;100734.31;8372868;28;20116;-50
2022/08/12 11:22:57;;;;;;;8.40;1.57;;;;;;;37.31;30.42;100727.59;8391404;28;20036;-52
2022/08/12 11:26:59;;;;;;;1.58;1.10;;;;;;;37.47;30.42;100732.63;8385281;28;20044;-51
2022/08/12 11:31:00;;;;;;;4.07;1.37;;;;;;;36.60;30.46;100718.72;8389957;28;20063;-53
2022/08/12 11:35:00;;;;;;;8.60;1.50;;;;;;;37.21;29.87;100728.66;8390356;28;20036;-51
2022/08/12 11:39:02;;;;;;;2.77;1.53;;;;;;;36.46;30.40;100729.91;8388091;28;20036;-54
2022/08/12 11:43:02;;;;;;;4.15;1.50;;;;;;;36.91;29.49;100719.88;8389631;28;20858;-51
2022/08/12 11:47:03;;;;;;;1.88;1.08;;;;;;;37.79;29.69;100716.75;8383724;28;20526;-51
2022/08/12 11:51:06;;;;;;;1.85;1.08;;;;;;;37.30;29.21;100718.31;8390048;28;21901;-54
2022/08/12 11:55:07;;;;;;;2.72;1.15;;;;;;;37.56;29.30;100714.97;8389581;28;20115;-51
2022/08/12 11:59:07;;;;;;;1.58;1.10;;;;;;;37.29;28.97;100710.16;8381352;28;20505;-54
2022/08/12 12:03:07;;;;;;;3.03;1.20;;;;;;;35.95;29.27;100700.81;8383482;28;20412;-51
2022/08/12 12:07:08;;;;;;;5.23;1.50;;;;;;;33.85;30.93;100710.06;8386250;28;20118;-54
2022/08/12 12:11:09;;;;;;;6.67;1.30;;;;;;;32.53;31.85;100695.81;8372367;28;20281;-53
2022/08/12 12:15:10;;;;;;;3.00;1.17;;;;;;;32.09;32.39;100697.44;8388617;28;20314;-54
2022/08/12 12:19:10;;;;;;;2.92;1.02;;;;;;;31.76;33.23;100689.50;8383594;28;20041;-53
2022/08/12 12:23:10;;;;;;;4.38;1.17;;;;;;;31.87;33.95;100694.03;8388575;28;20040;-53
2022/08/12 12:27:11;;;;;;;1.13;1.00;;;;;;;32.17;33.36;100682.91;8388927;28;20041;-54
2022/08/12 12:31:11;;;;;;;3.00;1.25;;;;;;;32.31;33.43;100667.22;8387238;28;20032;-54
2022/08/12 12:35:12;;;;;;;3.00;1.33;;;;;;;32.01;33.97;100664.41;8388565;28;20454;-54
2022/08/12 12:39:12;;;;;;;3.15;1.40;;;;;;;31.81;34.24;100669.94;8388880;28;20263;-52
2022/08/12 12:43:14;;;;;;;3.93;1.33;;;;;;;32.26;34.06;100660.81;8393016;28;20032;-53
2022/08/12 12:47:15;;;;;;;1.80;1.00;;;;;;;32.49;34.08;100652.72;8387480;28;20281;-51
2022/08/12 12:51:15;;;;;;;2.67;1.27;;;;;;;32.35;34.15;100648.78;8383754;28;20078;-51
2022/08/12 12:55:16;;;;;;;5.28;1.33;;;;;;;32.62;34.26;100642.91;8371867;28;20029;-53
2022/08/12 12:59:17;;;;;;;1.25;1.10;;;;;;;32.38;33.39;100647.41;8388256;28;20028;-54
2022/08/12 13:03:18;;;;;;;3.15;1.40;;;;;;;32.16;32.77;100628.88;8383848;28;20112;-50
2022/08/12 13:07:20;;;;;;;3.00;1.20;;;;;;;31.84;33.90;100624.66;8379736;28;20036;-53
2022/08/12 13:11:21;;;;;;;4.97;1.17;;;;;;;32.00;33.18;100624.41;8365714;28;20048;-52
2022/08/12 13:15:22;;;;;;;1.65;1.20;;;;;;;32.34;32.51;100616.31;8375299;28;20117;-54
2022/08/12 13:19:23;;;;;;;2.92;1.17;;;;;;;32.18;32.17;100615.47;8382840;28;20028;-54
2022/08/12 13:23:23;;;;;;;2.07;0.90;;;;;;;31.95;32.93;100609.56;8376723;28;20039;-53
2022/08/12 13:27:28;;;;;;;2.00;1.17;;;;;;;31.78;32.74;100614.56;8379799;28;20294;-54
2022/08/12 13:31:28;;;;;;;2.83;1.20;;;;;;;32.26;32.60;100611.25;8376220;28;20766;-53
2022/08/12 13:35:34;;;;;;;2.65;1.30;;;;;;;32.43;32.08;100606.22;8378309;28;20047;-54
2022/08/12 13:39:34;;;;;;;3.50;1.15;;;;;;;32.30;32.52;100603.97;8382742;28;21028;-53
2022/08/12 13:43:35;;;;;;;2.65;1.05;;;;;;;32.33;31.80;100611.81;8385648;28;20062;-54
2022/08/12 13:47:56;;;;;;;4.50;1.08;;;;;;;32.01;31.65;100611.25;8385634;28;20047;-54
2022/08/12 13:51:57;;;;;;;2.05;0.90;;;;;;;31.64;31.68;100597.47;8379001;28;20460;-53
2022/08/12 13:55:57;;;;;;;1.30;1.15;;;;;;;31.83;32.08;100590.25;8380643;28;20024;-51
2022/08/12 13:59:58;;;;;;;2.88;1.00;;;;;;;32.40;31.63;100590.00;8378021;28;20048;-53
2022/08/12 14:04:02;;;;;;;2.28;0.88;;;;;;;32.51;30.83;100580.47;8368054;28;20035;-54
2022/08/12 14:08:05;;;;;;;2.55;1.00;;;;;;;32.15;30.70;100581.59;8385911;28;20488;-54
2022/08/12 14:12:06;;;;;;;1.37;0.80;;;;;;;32.31;31.51;100586.06;8355723;28;20033;-54
2022/08/12 14:16:09;;;;;;;1.87;0.90;;;;;;;32.33;31.63;100578.22;8372241;28;20064;-54
2022/08/12 14:20:13;;;;;;;;;;;;;;;32.04;31.54;100571.50;8384413;28;20751;-50
2022/08/12 14:24:13;;;;;;;4.10;1.27;;;;;;;32.13;31.64;100573.47;8384178;28;19913;-53
2022/08/12 14:28:15;;;;;;;1.60;1.10;;;;;;;32.14;31.65;100563.94;8386888;28;20063;-53
2022/08/12 14:32:16;;;;;;;2.35;1.00;;;;;;;32.36;31.58;100574.91;8373604;28;20275;-54
2022/08/12 14:36:21;;;;;;;3.27;0.90;;;;;;;32.09;31.21;100577.13;8386836;28;20043;-51
2022/08/12 14:40:22;;;;;;;2.85;1.27;;;;;;;32.10;31.21;100564.78;8386710;28;20267;-54
2022/08/12 14:44:22;;;;;;;2.53;0.90;;;;;;;32.35;31.32;100558.38;8385434;28;20052;-54
2022/08/12 14:48:24;;;;;;;1.87;1.00;;;;;;;32.38;31.27;100563.41;8385288;28;20279;-53
2022/08/12 14:52:24;;;;;;;3.58;1.00;;;;;;;32.33;31.64;100567.03;8379958;28;20039;-54
2022/08/12 14:56:25;;;;;;;2.20;1.20;;;;;;;32.41;31.93;100563.66;8364339;28;20059;-53
2022/08/12 15:01:42;;;;;;;2.60;1.27;;;;;;;32.29;32.21;100553.88;8380882;28;20305;-55
2022/08/12 15:04:54;;;;;;;2.08;0.80;;;;;;;32.29;31.86;100549.09;8401348;28;20070;-54
2022/08/12 15:08:55;;;;;;;1.40;1.15;;;;;;;32.32;31.54;100542.94;8376169;28;20041;-51
2022/08/12 15:12:57;;;;;;;4.05;1.10;;;;;;;32.17;32.06;100535.41;8353599;28;20029;-51
2022/08/12 15:16:58;;;;;;;3.33;1.20;;;;;;;32.15;32.21;100531.22;8345189;28;20055;-53
2022/08/12 15:21:01;;;;;;;1.55;1.00;;;;;;;32.12;31.68;100531.78;8384060;28;20370;-52
2022/08/12 15:25:02;;;;;;;1.25;0.90;;;;;;;32.29;32.51;100526.69;8386065;28;20078;-54
2022/08/12 15:29:02;;;;;;;3.15;1.30;;;;;;;32.32;32.04;100525.31;8385907;28;20504;-52
2022/08/12 15:33:07;;;;;;;1.48;1.00;;;;;;;32.39;32.95;100514.69;8375999;28;20641;-54
2022/08/12 15:37:07;;;;;;;3.00;1.30;;;;;;;32.40;32.61;100520.00;8364453;28;20549;-55
2022/08/12 15:41:11;;;;;;;4.17;1.30;;;;;;;32.36;32.62;100527.31;8361905;28;20417;-53
2022/08/12 15:45:12;;;;;;;3.60;1.30;;;;;;;32.15;32.69;100520.03;8360285;28;20268;-54
2022/08/12 15:49:12;;;;;;;6.28;1.20;;;;;;;32.14;32.70;100518.34;8355901;28;20060;-54
2022/08/12 15:53:14;;;;;;;4.07;1.17;;;;;;;32.38;32.73;100505.44;8367488;28;20047;-54
2022/08/12 15:57:15;;;;;;;2.95;1.23;;;;;;;32.37;32.65;100508.53;8383546;28;20740;-52
2022/08/12 16:01:16;;;;;;;1.33;1.23;;;;;;;32.19;32.74;100504.34;8388611;28;20028;-52
2022/08/12 16:05:19;;;;;;;1.90;1.00;;;;;;;32.27;32.50;100506.56;8382381;28;20485;-54
2022/08/12 16:09:21;;;;;;;3.75;1.42;;;;;;;32.29;32.61;100498.72;8358067;28;20033;-54
2022/08/12 16:13:22;;;;;;;3.70;1.52;;;;;;;32.19;32.63;100495.94;8369926;28;20044;-53
2022/08/12 16:17:23;;;;;;;3.58;1.38;;;;;;;32.10;32.91;100495.69;8364199;28;20040;-51
2022/08/12 16:21:24;;;;;;;3.15;1.05;;;;;;;32.19;32.34;100493.13;8384693;28;20243;-52
2022/08/12 16:25:26;;;;;;;1.27;1.15;;;;;;;32.12;32.32;100487.00;8361251;28;20068;-55
2022/08/12 16:29:38;;;;;;;3.22;0.88;;;;;;;32.02;32.47;100470.25;8378310;28;20039;-52
2022/08/12 16:33:41;;;;;;;2.50;1.00;;;;;;;32.08;33.11;100480.31;8388934;28;20040;-52
2022/08/12 16:37:43;;;;;;;7.78;1.40;;;;;;;32.10;33.49;100483.63;8358291;28;20108;-54
2022/08/12 16:41:44;;;;;;;2.60;1.40;;;;;;;32.05;33.04;100486.47;8372582;28;20082;-51
2022/08/12 16:45:45;;;;;;;3.55;1.20;;;;;;;31.89;32.94;100481.97;8374610;28;20045;-51
2022/08/12 16:49:45;;;;;;;7.38;1.23;;;;;;;31.90;32.23;100472.50;8372392;28;20037;-55
2022/08/12 16:53:46;;;;;;;5.50;1.52;;;;;;;31.80;32.77;100469.66;8362621;28;20064;-54
2022/08/12 16:57:47;;;;;;;4.10;1.05;;;;;;;31.72;32.53;100473.88;8366863;28;20451;-51
2022/08/12 17:01:48;;;;;;;5.60;1.08;;;;;;;31.78;32.63;100471.91;8360976;28;20051;-52
2022/08/12 17:05:53;;;;;;;1.70;0.80;;;;;;;31.73;32.62;100466.31;8369006;28;20036;-51
2022/08/12 17:09:53;;;;;;;2.05;1.23;;;;;;;31.62;32.39;100475.84;8358132;28;20048;-52
2022/08/12 17:13:53;;;;;;;1.17;0.90;;;;;;;31.55;32.72;100475.25;8345334;28;20229;-54
2022/08/12 17:17:54;;;;;;;3.67;1.23;;;;;;;31.52;32.89;100475.81;8364760;28;20303;-51
2022/08/12 17:21:56;;;;;;;3.58;1.33;;;;;;;31.44;33.66;100468.81;8368771;28;20516;-54
2022/08/12 17:25:58;;;;;;;3.88;1.58;;;;;;;31.45;33.21;100476.09;8374712;28;20025;-51
2022/08/12 17:29:58;;;;;;;5.00;1.23;;;;;;;31.38;33.76;100469.09;8377753;28;20479;-53
2022/08/12 17:34:00;;;;;;;3.72;1.15;;;;;;;31.31;33.52;100468.50;8369741;28;20036;-51
2022/08/12 17:38:03;;;;;;;1.77;1.10;;;;;;;31.25;33.79;100464.03;8371548;28;20021;-54
2022/08/12 17:42:04;;;;;;;2.78;1.15;;;;;;;31.15;33.72;100464.00;8373594;28;20036;-53
2022/08/12 17:46:07;;;;;;;2.40;1.10;;;;;;;31.14;33.83;100465.13;8353357;28;21166;-52
2022/08/12 17:50:08;;;;;;;3.45;1.40;;;;;;;31.06;34.26;100460.06;8355114;28;20436;-55
2022/08/12 17:54:09;;;;;;;2.38;0.95;;;;;;;30.95;33.99;100461.16;8355881;28;20435;-52
2022/08/12 17:58:11;;;;;;;3.22;1.30;;;;;;;30.86;34.45;100465.59;8347843;28;20114;-53
2022/08/12 18:02:13;;;;;;;3.47;1.42;;;;;;;30.70;34.75;100472.22;8370351;28;20047;-54
2022/08/12 18:06:14;;;;;;;6.50;1.50;;;;;;;30.69;35.04;100476.97;8343244;28;20484;-54
2022/08/12 18:12:35;;;;;;;2.28;1.40;;;;;;;30.61;34.94;100473.88;8370146;28;20072;-52
2022/08/12 18:14:35;;;;;;;4.60;1.67;;;;;;;30.52;35.00;100481.06;8366852;28;20083;-53
2022/08/12 18:18:37;;;;;;;4.35;1.50;;;;;;;30.46;35.42;100482.16;8369200;28;20105;-52
2022/08/12 18:22:37;;;;;;;7.40;1.27;;;;;;;30.29;35.86;100494.38;8378310;28;20028;-51
2022/08/12 18:26:38;;;;;;;4.03;1.35;;;;;;;30.14;35.82;100502.59;8342642;28;20140;-54
2022/08/12 18:30:43;;;;;;;4.30;1.65;;;;;;;30.05;36.17;100498.63;8359667;28;20072;-52
2022/08/12 18:34:45;;;;;;;3.83;1.40;;;;;;;29.82;36.81;100499.00;8353672;28;20033;-52
2022/08/12 18:38:45;;;;;;;2.22;1.20;;;;;;;29.70;37.06;100514.25;8354724;28;20067;-53
2022/08/12 18:42:46;;;;;;;4.00;1.25;;;;;;;29.50;37.15;100516.78;8354349;28;20033;-53
2022/08/12 18:46:54;;;;;;;5.07;1.30;;;;;;;29.35;37.33;100520.28;8357363;28;20044;-54
2022/08/12 18:51:05;;;;;;;5.05;1.45;;;;;;;29.21;37.27;100521.78;8386023;28;20090;-54
2022/08/12 18:55:10;;;;;;;2.75;1.17;;;;;;;29.00;38.09;100510.66;8383613;28;20122;-53
2022/08/12 18:59:18;;;;;;;3.45;1.40;;;;;;;28.91;37.57;100515.00;8370360;28;20381;-53
2022/08/12 19:03:19;;;;;;;2.25;1.15;;;;;;;28.75;37.70;100522.31;8365287;28;20068;-51
2022/08/12 19:07:22;;;;;;;2.33;1.17;;;;;;;28.54;38.45;100525.94;8354218;28;20044;-53
2022/08/12 19:15:44;;;;;;;2.22;1.15;;;;;;;28.26;38.49;100526.91;8348613;28;20090;-52
2022/08/12 19:19:45;;;;;;;1.58;1.40;;;;;;;28.19;38.92;100536.53;8361007;28;20041;-54
2022/08/12 19:25:20;;;;;;;3.88;2.00;;;;;;;28.14;38.65;100539.22;8360759;28;20045;-51
2022/08/12 19:28:07;;;;;;;6.03;2.58;;;;;;;27.96;39.02;100536.72;8347012;28;20125;-54
2022/08/12 19:32:12;;;;;;;3.07;2.70;;;;;;;27.78;39.38;100553.63;8357560;28;20041;-52
2022/08/12 19:36:12;;;;;;;3.33;3.13;;;;;;;27.70;39.80;100551.25;8325682;28;20291;-53
2022/08/12 19:40:14;;;;;;;8.60;4.57;;;;;;;27.60;39.80;100548.28;8329076;28;20048;-51
2022/08/12 19:44:16;;;;;;;5.88;5.22;;;;;;;27.60;39.78;100549.13;8324200;28;20044;-53
2022/08/12 19:48:19;;;;;;;9.68;5.75;;;;;;;27.56;40.00;100547.09;8340156;28;20083;-51
2022/08/12 19:52:24;;;;;;;7.38;6.70;;;;;;;27.51;39.78;100555.34;8357645;28;20037;-52
2022/08/12 19:56:27;;;;;;;11.23;6.85;;;;;;;27.34;40.44;100552.53;8348691;28;20083;-51
2022/08/12 20:00:27;;;;;;;8.52;7.25;;;;;;;27.20;40.63;100553.88;8370707;28;20028;-53
2022/08/12 20:04:28;;;;;;;9.45;7.68;;;;;;;27.10;41.01;100558.38;8360121;28;20404;-52
2022/08/12 20:08:28;;;;;;;11.00;7.70;;;;;;;26.97;41.30;100564.22;8369834;28;20051;-52
2022/08/12 20:12:34;;;;;;;9.40;8.20;;;;;;;26.86;41.51;100563.19;8345091;28;20474;-50
2022/08/12 20:16:35;;;;;;;13.23;8.82;;;;;;;26.72;41.66;100557.06;8362759;28;20044;-53
2022/08/12 20:20:37;;;;;;;11.98;9.02;;;;;;;26.72;41.61;100557.06;8366668;28;20041;-51
2022/08/12 20:24:40;;;;;;;11.98;10.13;;;;;;;26.54;42.12;100557.19;8346635;28;20037;-50
2022/08/12 20:28:40;;;;;;;12.50;10.27;;;;;;;26.50;42.41;100569.03;8370825;28;20037;-52
2022/08/12 20:32:58;;;;;;;14.55;10.77;;;;;;;26.32;42.51;100553.34;8344951;28;20540;-51